Time;durP1;ratioP1;P1;durP2;ratioP2;P2;SDS_P1;SDS_P2;PMS_P1;PMS_P2;Temp;Humidity;BMP_temperature;BMP_pressure;BME280_temperature;BME280_humidity;BME280_pressure;Samples;Min_cycle;Max_cycle;Signal;HPM_P1;HPM_P2
2022/03/27 00:01:30;;;;;;;13.18;8.07;;;10.60;93.60;;;;;;4997000;28;20069;-63
2022/03/27 00:03:56;;;;;;;12.45;7.95;;;10.60;93.60;;;;;;4992345;28;20031;-63
2022/03/27 00:06:22;;;;;;;10.10;7.40;;;10.50;93.60;;;;;;5008006;28;20049;-63
2022/03/27 00:08:47;;;;;;;13.13;9.40;;;10.50;93.70;;;;;;4993528;28;20022;-63
2022/03/27 00:11:26;;;;;;;11.80;8.85;;;10.50;93.80;;;;;;4993129;28;20494;-63
2022/03/27 00:13:52;;;;;;;12.43;9.32;;;10.40;93.80;;;;;;4992192;28;20364;-63
2022/03/27 00:16:18;;;;;;;13.07;9.35;;;10.40;93.80;;;;;;4992092;28;20026;-63
2022/03/27 00:18:43;;;;;;;14.27;9.02;;;10.50;93.90;;;;;;4992190;28;20026;-63
2022/03/27 00:21:09;;;;;;;12.20;9.10;;;10.50;93.90;;;;;;4994101;28;20054;-63
2022/03/27 00:23:35;;;;;;;14.93;10.35;;;10.50;94.00;;;;;;4992279;28;20036;-63
2022/03/27 00:26:01;;;;;;;13.48;10.00;;;10.40;94.00;;;;;;4994172;28;20419;-63
2022/03/27 00:28:32;;;;;;;12.63;9.27;;;10.40;94.00;;;;;;4992447;28;20038;-63
2022/03/27 00:30:59;;;;;;;14.77;10.02;;;10.40;94.10;;;;;;5005081;28;20057;-63
2022/03/27 00:33:24;;;;;;;16.40;10.32;;;10.40;94.10;;;;;;5002309;28;20033;-63
2022/03/27 00:35:50;;;;;;;15.80;11.45;;;10.40;94.20;;;;;;5004544;28;20409;-63
2022/03/27 00:38:16;;;;;;;15.60;10.90;;;10.40;94.20;;;;;;5005571;28;20481;-63
2022/03/27 00:40:42;;;;;;;17.20;11.40;;;10.30;94.20;;;;;;5002027;28;20098;-63
2022/03/27 00:43:07;;;;;;;15.02;11.00;;;10.40;94.30;;;;;;5006947;28;20030;-63
2022/03/27 00:45:33;;;;;;;15.07;9.95;;;10.30;94.30;;;;;;5000910;28;20323;-63
2022/03/27 00:47:58;;;;;;;14.00;9.80;;;10.30;94.30;;;;;;5001894;28;20034;-63
2022/03/27 00:50:24;;;;;;;17.38;9.93;;;10.30;94.40;;;;;;5009215;28;20026;-63
2022/03/27 00:52:49;;;;;;;13.48;9.20;;;10.30;94.40;;;;;;4992459;28;20514;-63
2022/03/27 00:55:15;;;;;;;11.90;8.82;;;10.20;94.50;;;;;;4994499;28;20393;-64
2022/03/27 00:57:40;;;;;;;12.02;8.88;;;10.20;94.50;;;;;;4994589;28;20030;-63
2022/03/27 01:00:18;;;;;;;12.68;9.52;;;10.20;94.50;;;;;;4998338;28;20030;-63
2022/03/27 01:02:43;;;;;;;13.60;8.50;;;10.20;94.60;;;;;;4994188;28;20434;-63
2022/03/27 01:05:13;;;;;;;12.43;8.55;;;10.20;94.60;;;;;;4994802;28;20033;-63
2022/03/27 01:07:40;;;;;;;15.65;9.05;;;10.20;94.70;;;;;;4996258;28;20458;-64
2022/03/27 01:10:06;;;;;;;15.07;9.15;;;10.20;94.70;;;;;;5010837;28;20026;-64
2022/03/27 01:12:37;;;;;;;11.90;9.20;;;10.20;94.70;;;;;;5010080;28;20373;-63
2022/03/27 01:15:03;;;;;;;12.57;8.13;;;10.20;94.80;;;;;;5010506;28;20694;-63
2022/03/27 01:17:29;;;;;;;11.98;8.32;;;10.10;94.80;;;;;;5002384;28;20030;-63
2022/03/27 01:19:56;;;;;;;13.00;8.77;;;10.10;94.80;;;;;;5011521;28;20053;-63
2022/03/27 01:22:23;;;;;;;14.05;9.27;;;10.10;94.90;;;;;;5014127;28;20037;-63
2022/03/27 01:24:51;;;;;;;12.90;8.63;;;10.10;94.90;;;;;;5014915;28;20041;-63
2022/03/27 01:27:17;;;;;;;13.18;8.98;;;10.10;94.90;;;;;;5003321;28;20080;-64
2022/03/27 01:29:42;;;;;;;12.88;8.93;;;10.10;95.00;;;;;;5014169;28;20049;-64
2022/03/27 01:32:14;;;;;;;12.43;9.55;;;10.10;95.00;;;;;;5005467;28;20432;-63
2022/03/27 01:34:44;;;;;;;13.50;9.40;;;10.10;95.00;;;;;;5012611;28;20500;-63
2022/03/27 01:37:10;;;;;;;12.82;8.38;;;10.10;95.00;;;;;;5009900;28;20046;-63
2022/03/27 01:39:37;;;;;;;15.15;9.73;;;10.00;95.10;;;;;;5006152;28;20046;-63
2022/03/27 01:42:05;;;;;;;15.48;9.63;;;10.00;95.10;;;;;;5010610;28;20109;-63
2022/03/27 01:44:31;;;;;;;12.82;9.35;;;10.00;95.10;;;;;;5002375;28;20041;-64
2022/03/27 01:46:57;;;;;;;12.73;9.40;;;10.00;95.10;;;;;;4995279;28;20024;-63
2022/03/27 01:49:23;;;;;;;13.77;9.48;;;10.00;95.20;;;;;;5004565;28;20026;-63
2022/03/27 01:51:48;;;;;;;15.40;10.15;;;9.90;95.20;;;;;;5010767;28;20021;-64
2022/03/27 01:54:14;;;;;;;13.55;9.30;;;10.00;95.30;;;;;;5011707;28;20125;-63
2022/03/27 01:56:41;;;;;;;12.80;9.45;;;9.90;95.20;;;;;;4998483;28;20502;-63
2022/03/27 01:59:08;;;;;;;17.70;11.55;;;9.90;95.30;;;;;;5009356;28;20045;-63
2022/03/27 02:01:34;;;;;;;15.95;10.40;;;9.90;95.30;;;;;;5012909;28;20065;-63
2022/03/27 02:04:00;;;;;;;14.20;10.05;;;9.90;95.40;;;;;;5007051;28;20018;-62
2022/03/27 02:06:26;;;;;;;14.60;10.30;;;9.90;95.40;;;;;;5011790;28;20054;-63
2022/03/27 02:08:52;;;;;;;17.38;11.10;;;9.80;95.40;;;;;;5003383;28;20026;-63
2022/03/27 02:11:18;;;;;;;15.10;10.30;;;9.80;95.40;;;;;;4994971;28;20162;-62
2022/03/27 02:13:44;;;;;;;16.52;10.63;;;9.80;95.40;;;;;;5005453;28;20037;-62
2022/03/27 02:16:10;;;;;;;16.83;11.02;;;9.80;95.50;;;;;;5007892;28;20041;-62
2022/03/27 02:18:36;;;;;;;16.23;10.43;;;9.80;95.50;;;;;;5010110;28;20029;-62
2022/03/27 02:21:02;;;;;;;15.20;11.15;;;9.70;95.40;;;;;;5009186;28;20116;-63
2022/03/27 02:23:29;;;;;;;14.52;10.75;;;9.70;95.50;;;;;;5008725;28;20026;-63
2022/03/27 02:25:55;;;;;;;16.38;10.55;;;9.70;95.40;;;;;;5010241;28;20420;-63
2022/03/27 02:28:20;;;;;;;16.75;11.73;;;9.70;95.30;;;;;;5008241;28;20030;-63
2022/03/27 02:30:46;;;;;;;20.35;12.50;;;9.70;95.40;;;;;;5005361;28;20105;-63
2022/03/27 02:33:12;;;;;;;17.15;11.55;;;9.70;95.40;;;;;;5009735;28;20054;-63
2022/03/27 02:35:38;;;;;;;20.48;12.20;;;9.60;95.30;;;;;;5002565;28;20065;-63
2022/03/27 02:38:07;;;;;;;19.92;13.68;;;9.60;95.20;;;;;;5000240;28;20022;-62
2022/03/27 02:40:37;;;;;;;16.73;12.10;;;9.50;95.30;;;;;;4994433;28;20169;-62
2022/03/27 02:43:03;;;;;;;19.02;11.93;;;9.50;95.40;;;;;;4995009;28;20045;-62
2022/03/27 02:45:29;;;;;;;17.63;11.02;;;9.50;95.50;;;;;;4994599;28;20636;-62
2022/03/27 02:47:56;;;;;;;16.48;11.32;;;9.40;95.80;;;;;;5006250;28;20037;-62
2022/03/27 02:50:22;;;;;;;17.85;12.13;;;9.40;95.60;;;;;;4997834;28;20038;-62
2022/03/27 02:52:48;;;;;;;18.27;12.50;;;9.40;95.70;;;;;;4995011;28;20030;-63
2022/03/27 02:55:13;;;;;;;18.10;13.05;;;9.40;95.60;;;;;;4996275;28;20034;-63
2022/03/27 02:57:39;;;;;;;20.13;12.98;;;9.30;95.60;;;;;;5001946;28;20031;-63
2022/03/27 03:00:06;;;;;;;18.40;12.55;;;9.30;95.70;;;;;;5007184;28;20052;-62
2022/03/27 03:02:33;;;;;;;21.13;13.35;;;9.30;95.70;;;;;;5010498;28;20026;-63
2022/03/27 03:04:58;;;;;;;18.90;13.55;;;9.30;95.70;;;;;;5013654;28;20110;-62
2022/03/27 03:07:24;;;;;;;18.15;13.13;;;9.20;95.60;;;;;;5003815;28;20150;-62
2022/03/27 03:09:50;;;;;;;18.55;13.07;;;9.20;95.60;;;;;;5009038;28;20038;-62
2022/03/27 03:12:16;;;;;;;19.08;13.60;;;9.20;95.50;;;;;;5004210;28;20033;-62
2022/03/27 03:14:41;;;;;;;20.10;14.23;;;9.10;95.60;;;;;;5012775;28;20026;-62
2022/03/27 03:17:08;;;;;;;20.80;14.20;;;9.10;95.70;;;;;;5006154;28;20039;-62
2022/03/27 03:19:34;;;;;;;18.77;12.98;;;9.10;95.80;;;;;;4994866;28;20089;-62
2022/03/27 03:21:59;;;;;;;19.55;13.20;;;9.00;95.70;;;;;;5001753;28;20030;-62
2022/03/27 03:24:26;;;;;;;20.02;13.75;;;9.00;95.80;;;;;;5012513;28;20026;-62
2022/03/27 03:26:53;;;;;;;21.40;14.40;;;9.00;95.80;;;;;;4999788;28;20080;-63
2022/03/27 03:29:19;;;;;;;19.20;14.10;;;8.90;95.80;;;;;;5010973;28;20037;-63
2022/03/27 03:31:44;;;;;;;17.58;13.10;;;8.90;95.90;;;;;;5004983;28;20029;-63
2022/03/27 03:34:10;;;;;;;20.10;14.93;;;8.90;95.90;;;;;;4995255;28;20125;-64
2022/03/27 03:36:35;;;;;;;22.42;15.32;;;8.80;96.00;;;;;;5011637;28;20075;-64
2022/03/27 03:39:01;;;;;;;21.15;15.43;;;8.80;96.00;;;;;;4998079;28;20038;-64
2022/03/27 03:41:26;;;;;;;22.38;15.82;;;8.70;96.00;;;;;;5011713;28;20112;-63
2022/03/27 03:43:52;;;;;;;21.27;15.93;;;8.80;96.00;;;;;;4995423;28;20065;-64
2022/03/27 03:46:17;;;;;;;25.33;17.63;;;8.70;96.00;;;;;;5005105;28;20030;-64
2022/03/27 03:48:44;;;;;;;24.92;16.65;;;8.70;96.10;;;;;;5010303;28;20599;-64
2022/03/27 03:51:09;;;;;;;24.10;17.25;;;8.70;96.10;;;;;;5010684;28;20026;-64
2022/03/27 03:53:35;;;;;;;27.08;17.17;;;8.60;96.20;;;;;;5009237;28;20650;-64
2022/03/27 03:56:00;;;;;;;23.83;16.58;;;8.60;96.20;;;;;;5008605;28;20058;-64
2022/03/27 03:58:26;;;;;;;25.33;17.48;;;8.60;96.30;;;;;;5008637;28;20417;-64
2022/03/27 04:00:51;;;;;;;23.83;16.13;;;8.60;96.30;;;;;;5010892;28;20481;-64
2022/03/27 04:03:16;;;;;;;25.27;16.83;;;8.60;96.30;;;;;;4997171;28;20038;-64
2022/03/27 04:05:42;;;;;;;24.95;15.75;;;8.50;96.30;;;;;;5010712;28;20136;-64
2022/03/27 04:08:08;;;;;;;20.98;16.48;;;8.50;96.40;;;;;;5011153;28;20049;-64
2022/03/27 04:10:33;;;;;;;21.38;15.82;;;8.50;96.40;;;;;;5008340;28;20053;-64
2022/03/27 04:12:59;;;;;;;23.58;14.98;;;8.50;96.40;;;;;;5011050;28;20041;-63
2022/03/27 04:15:25;;;;;;;22.52;16.70;;;8.50;96.40;;;;;;5010593;28;20033;-63
2022/03/27 04:17:51;;;;;;;22.42;16.90;;;8.50;96.50;;;;;;5007415;28;20021;-63
2022/03/27 04:20:18;;;;;;;23.20;16.77;;;8.50;96.50;;;;;;5009869;28;20045;-63
2022/03/27 04:22:45;;;;;;;21.75;17.17;;;8.50;96.50;;;;;;5010059;28;20061;-63
2022/03/27 04:25:12;;;;;;;23.30;15.35;;;8.40;96.50;;;;;;5009437;28;20025;-63
2022/03/27 04:27:38;;;;;;;20.30;15.10;;;8.50;96.50;;;;;;5010627;28;20034;-63
2022/03/27 04:30:08;;;;;;;23.58;15.68;;;8.50;96.50;;;;;;5014116;28;20034;-63
2022/03/27 04:32:34;;;;;;;22.98;15.98;;;8.40;96.50;;;;;;4996088;28;20092;-63
2022/03/27 04:34:59;;;;;;;25.58;16.40;;;8.40;96.60;;;;;;5007305;28;20612;-63
2022/03/27 04:37:25;;;;;;;21.42;16.73;;;8.40;96.60;;;;;;4992178;28;20527;-63
2022/03/27 04:39:50;;;;;;;24.10;15.85;;;8.40;96.60;;;;;;4996332;28;20117;-63
2022/03/27 04:42:16;;;;;;;20.58;15.20;;;8.30;96.60;;;;;;4995467;28;20022;-63
2022/03/27 04:44:41;;;;;;;23.77;15.25;;;8.40;96.60;;;;;;4996192;28;20021;-63
2022/03/27 04:47:07;;;;;;;22.08;15.68;;;8.30;96.50;;;;;;4996852;28;20084;-63
2022/03/27 04:49:33;;;;;;;20.77;15.90;;;8.30;96.50;;;;;;5006515;28;20505;-64
2022/03/27 04:51:58;;;;;;;24.45;16.23;;;8.30;96.60;;;;;;5006573;28;20026;-65
2022/03/27 04:54:24;;;;;;;22.90;16.55;;;8.30;96.60;;;;;;4995527;28;20420;-65
2022/03/27 04:56:51;;;;;;;25.60;15.65;;;8.30;96.60;;;;;;4994072;28;20025;-64
2022/03/27 04:59:19;;;;;;;22.13;15.25;;;8.30;96.60;;;;;;4994929;28;20668;-69
2022/03/27 05:01:44;;;;;;;20.67;15.57;;;8.30;96.60;;;;;;5010459;28;20066;-69
2022/03/27 05:04:10;;;;;;;20.40;15.55;;;8.30;96.60;;;;;;5010209;28;20067;-68
2022/03/27 05:06:36;;;;;;;26.58;17.42;;;8.30;96.60;;;;;;5009953;28;20129;-69
2022/03/27 05:09:02;;;;;;;23.73;16.20;;;8.30;96.60;;;;;;4998856;28;20105;-68
2022/03/27 05:11:28;;;;;;;23.70;15.15;;;8.30;96.70;;;;;;4996290;28;20057;-69
2022/03/27 05:13:55;;;;;;;22.13;15.52;;;8.30;96.60;;;;;;5004699;28;20105;-69
2022/03/27 05:16:21;;;;;;;23.05;15.45;;;8.30;96.60;;;;;;4993785;28;20045;-70
2022/03/27 05:18:46;;;;;;;20.25;16.00;;;8.30;96.70;;;;;;4994607;28;20031;-70
2022/03/27 05:21:11;;;;;;;23.15;15.73;;;8.30;96.70;;;;;;4996401;28;20042;-70
2022/03/27 05:23:37;;;;;;;21.02;15.50;;;8.30;96.60;;;;;;5010414;28;20064;-70
2022/03/27 05:26:03;;;;;;;22.98;15.50;;;8.30;96.60;;;;;;5009636;28;20030;-69
2022/03/27 05:28:28;;;;;;;23.92;16.88;;;8.30;96.50;;;;;;5007448;28;20033;-69
2022/03/27 05:30:56;;;;;;;24.70;17.77;;;8.30;96.60;;;;;;5007134;28;20041;-69
2022/03/27 05:33:22;;;;;;;25.05;17.13;;;8.30;96.60;;;;;;5000869;28;20022;-69
2022/03/27 05:35:47;;;;;;;26.23;17.23;;;8.30;96.70;;;;;;4991454;28;20072;-69
2022/03/27 05:38:13;;;;;;;23.15;17.52;;;8.30;96.70;;;;;;5012603;28;20022;-69
2022/03/27 05:40:40;;;;;;;23.20;16.95;;;8.30;96.80;;;;;;5007961;28;20136;-69
2022/03/27 05:43:05;;;;;;;21.92;17.05;;;8.30;96.80;;;;;;5007868;28;20485;-69
2022/03/27 05:45:31;;;;;;;24.17;16.02;;;8.20;96.70;;;;;;4992726;28;20038;-69
2022/03/27 05:47:57;;;;;;;23.40;16.88;;;8.20;96.70;;;;;;5012212;28;20026;-69
2022/03/27 05:50:23;;;;;;;24.48;17.25;;;8.20;96.70;;;;;;5010897;28;20026;-69
2022/03/27 05:52:50;;;;;;;23.40;17.60;;;8.20;96.70;;;;;;5007653;28;20018;-69
2022/03/27 05:55:16;;;;;;;24.13;16.92;;;8.20;96.80;;;;;;5009644;28;20588;-69
2022/03/27 05:57:42;;;;;;;21.50;15.73;;;8.20;97.00;;;;;;5006590;28;20026;-70
2022/03/27 06:00:09;;;;;;;25.10;17.50;;;8.20;96.80;;;;;;5010436;28;20452;-70
2022/03/27 06:02:35;;;;;;;23.65;17.70;;;8.20;96.70;;;;;;5012038;28;20394;-69
2022/03/27 06:05:01;;;;;;;28.25;18.90;;;8.20;96.70;;;;;;5005234;28;20022;-70
2022/03/27 06:07:26;;;;;;;26.42;17.25;;;8.10;96.70;;;;;;5006779;28;20053;-69
2022/03/27 06:09:52;;;;;;;24.08;17.27;;;8.10;96.70;;;;;;5012478;28;20033;-70
2022/03/27 06:12:17;;;;;;;26.13;16.92;;;8.10;96.80;;;;;;5013024;28;20046;-70
2022/03/27 06:14:43;;;;;;;24.95;17.17;;;8.20;96.80;;;;;;5010111;28;20037;-70
2022/03/27 06:17:08;;;;;;;22.63;16.77;;;8.20;96.90;;;;;;5013504;28;20018;-69
2022/03/27 06:19:34;;;;;;;26.05;18.08;;;8.20;96.90;;;;;;5011576;28;20401;-69
2022/03/27 06:21:59;;;;;;;25.40;17.63;;;8.20;96.90;;;;;;5009037;28;20030;-69
2022/03/27 06:24:26;;;;;;;24.60;17.77;;;8.20;96.90;;;;;;4997259;28;20037;-69
2022/03/27 06:26:51;;;;;;;25.92;18.02;;;8.20;96.90;;;;;;4994734;28;20030;-69
2022/03/27 06:29:17;;;;;;;24.75;17.33;;;8.20;97.00;;;;;;5008301;28;20026;-69
2022/03/27 06:31:43;;;;;;;23.73;17.52;;;8.20;97.00;;;;;;5012905;28;20087;-69
2022/03/27 06:34:09;;;;;;;28.92;19.15;;;8.20;97.00;;;;;;5004450;28;20033;-69
2022/03/27 06:36:34;;;;;;;29.73;18.58;;;8.30;97.00;;;;;;5010094;28;20026;-69
2022/03/27 06:39:01;;;;;;;24.13;17.27;;;8.30;97.00;;;;;;5012746;28;20037;-69
2022/03/27 06:41:26;;;;;;;24.38;18.20;;;8.30;97.00;;;;;;5012499;28;20029;-67
2022/03/27 06:43:52;;;;;;;27.33;17.48;;;8.40;97.00;;;;;;5000480;28;20029;-67
2022/03/27 06:46:17;;;;;;;25.30;17.30;;;8.40;97.00;;;;;;5012598;28;20026;-67
2022/03/27 06:48:44;;;;;;;23.17;16.98;;;8.40;97.00;;;;;;5006619;28;20028;-65
2022/03/27 06:51:10;;;;;;;23.92;17.10;;;8.50;97.00;;;;;;5003892;28;20539;-66
2022/03/27 06:53:36;;;;;;;25.20;17.05;;;8.50;97.00;;;;;;4996740;28;20019;-66
2022/03/27 06:56:02;;;;;;;23.02;16.85;;;8.50;97.00;;;;;;5005338;28;20030;-67
2022/03/27 06:58:27;;;;;;;25.02;17.77;;;8.60;96.90;;;;;;4994144;28;20035;-67
2022/03/27 07:03:45;;;;;;;27.27;17.58;;;8.70;96.90;;;;;;4993190;28;20039;-66
2022/03/27 07:06:13;;;;;;;28.38;17.83;;;8.80;96.90;;;;;;5006866;28;20096;-65
2022/03/27 07:08:38;;;;;;;22.60;17.92;;;8.80;96.90;;;;;;5010244;28;20505;-67
2022/03/27 07:11:04;;;;;;;23.80;17.77;;;8.90;96.90;;;;;;4999826;28;20058;-67
2022/03/27 07:13:30;;;;;;;21.50;16.13;;;9.00;96.80;;;;;;4995723;28;20026;-67
2022/03/27 07:15:56;;;;;;;21.80;16.75;;;9.10;96.80;;;;;;5009328;28;20030;-68
2022/03/27 07:18:22;;;;;;;23.63;17.35;;;9.10;96.90;;;;;;4999242;28;20030;-67
2022/03/27 07:20:48;;;;;;;23.73;17.38;;;9.20;96.60;;;;;;5004253;28;20425;-67
2022/03/27 07:23:17;;;;;;;23.58;16.60;;;9.20;96.40;;;;;;5010943;28;20110;-67
2022/03/27 07:25:46;;;;;;;23.35;17.50;;;9.20;96.40;;;;;;4996992;28;20031;-67
2022/03/27 07:28:12;;;;;;;25.40;19.13;;;9.40;96.40;;;;;;4999978;28;20057;-67
2022/03/27 07:30:41;;;;;;;24.70;17.23;;;9.40;96.40;;;;;;5006496;28;20118;-67
2022/03/27 07:33:07;;;;;;;25.10;17.38;;;9.40;96.50;;;;;;5004752;28;20029;-67
2022/03/27 07:35:32;;;;;;;25.90;17.70;;;9.50;96.50;;;;;;5010591;28;20394;-67
2022/03/27 07:37:59;;;;;;;24.73;17.45;;;9.60;96.40;;;;;;5005376;28;20029;-67
2022/03/27 07:40:24;;;;;;;23.00;17.10;;;9.70;96.30;;;;;;4993372;28;20448;-68
2022/03/27 07:42:50;;;;;;;22.15;15.73;;;9.70;96.30;;;;;;4997060;28;20061;-67
2022/03/27 07:45:21;;;;;;;25.88;17.65;;;9.80;96.30;;;;;;4993467;28;20022;-67
2022/03/27 07:47:47;;;;;;;25.20;17.10;;;9.90;96.30;;;;;;5001874;28;20034;-67
2022/03/27 07:50:14;;;;;;;21.67;16.77;;;10.00;96.20;;;;;;5002869;28;20037;-68
2022/03/27 07:52:40;;;;;;;23.85;17.10;;;10.00;96.10;;;;;;5001838;28;20059;-68
2022/03/27 07:55:08;;;;;;;22.45;16.67;;;10.10;96.10;;;;;;5004983;28;20383;-68
2022/03/27 07:57:33;;;;;;;21.92;17.63;;;10.20;96.10;;;;;;4994091;28;20045;-68
2022/03/27 07:59:59;;;;;;;22.65;16.80;;;10.30;96.00;;;;;;5002431;28;20473;-68
2022/03/27 08:02:25;;;;;;;23.33;15.57;;;10.30;96.00;;;;;;5009144;28;20026;-70
2022/03/27 08:04:50;;;;;;;23.05;15.45;;;10.40;96.00;;;;;;5004656;28;20246;-70
2022/03/27 08:07:16;;;;;;;20.45;15.02;;;10.60;96.00;;;;;;5001027;28;20049;-70
2022/03/27 08:09:42;;;;;;;22.13;14.52;;;10.60;96.00;;;;;;5002312;28;20038;-69
2022/03/27 08:12:09;;;;;;;19.23;14.35;;;10.70;96.00;;;;;;4993153;28;20026;-70
2022/03/27 08:14:39;;;;;;;19.02;13.82;;;10.70;96.00;;;;;;4994862;28;20088;-70
2022/03/27 08:17:05;;;;;;;17.98;13.45;;;10.80;96.00;;;;;;4996505;28;20040;-70
2022/03/27 08:19:31;;;;;;;19.23;13.93;;;10.90;96.10;;;;;;5006093;28;20066;-70
2022/03/27 08:21:57;;;;;;;19.48;14.23;;;11.00;96.10;;;;;;4995878;28;20112;-70
2022/03/27 08:24:23;;;;;;;19.38;13.25;;;11.00;96.10;;;;;;5008492;28;20758;-69
2022/03/27 08:26:59;;;;;;;18.48;13.30;;;11.10;96.10;;;;;;4994359;28;20462;-70
2022/03/27 08:29:33;;;;;;;21.65;14.73;;;11.10;96.10;;;;;;5008194;28;20685;-71
2022/03/27 08:32:00;;;;;;;16.80;13.57;;;11.20;96.00;;;;;;4995307;28;20041;-70
2022/03/27 08:34:29;;;;;;;18.48;13.85;;;11.30;96.00;;;;;;5007278;28;20619;-69
2022/03/27 08:36:55;;;;;;;20.63;13.55;;;11.30;96.00;;;;;;5007024;28;20036;-70
2022/03/27 08:39:21;;;;;;;19.10;14.23;;;11.40;95.90;;;;;;4998365;28;20046;-69
2022/03/27 08:41:48;;;;;;;21.38;14.43;;;11.50;95.80;;;;;;5003784;28;20045;-70
2022/03/27 08:44:18;;;;;;;17.65;12.23;;;11.60;95.80;;;;;;5010465;28;20045;-70
2022/03/27 08:46:44;;;;;;;21.00;13.60;;;11.60;95.70;;;;;;5004646;28;20084;-70
2022/03/27 08:49:23;;;;;;;17.75;12.57;;;11.70;95.70;;;;;;5005864;28;20041;-69
2022/03/27 08:52:08;;;;;;;16.23;12.30;;;11.80;95.70;;;;;;5002640;28;21045;-69
2022/03/27 08:55:02;;;;;;;15.77;11.38;;;11.90;95.50;;;;;;5003598;28;20417;-70
2022/03/27 08:57:54;;;;;;;16.73;11.32;;;12.00;95.50;;;;;;5004798;28;20091;-69
2022/03/27 09:00:24;;;;;;;14.23;10.13;;;12.00;95.40;;;;;;4994101;28;20449;-70
2022/03/27 09:02:50;;;;;;;24.58;11.30;;;12.10;95.30;;;;;;5005830;28;20106;-69
2022/03/27 09:05:17;;;;;;;15.50;11.25;;;12.10;95.20;;;;;;4991508;28;20077;-69
2022/03/27 09:07:42;;;;;;;13.20;9.38;;;12.20;95.00;;;;;;5003888;28;20397;-67
2022/03/27 09:10:09;;;;;;;12.82;9.73;;;12.30;94.90;;;;;;4992792;28;20026;-70
2022/03/27 09:12:35;;;;;;;13.82;9.57;;;12.40;94.90;;;;;;5007140;28;20026;-70
2022/03/27 09:15:04;;;;;;;12.45;8.63;;;12.50;94.80;;;;;;5008784;28;20033;-70
2022/03/27 09:17:30;;;;;;;10.95;8.55;;;12.60;94.70;;;;;;5006938;28;20029;-70
2022/03/27 09:19:55;;;;;;;11.75;8.23;;;12.70;94.60;;;;;;5005840;28;20033;-70
2022/03/27 09:22:32;;;;;;;12.13;8.45;;;12.80;94.30;;;;;;4991661;28;20030;-70
2022/03/27 09:25:01;;;;;;;11.63;8.57;;;12.80;94.20;;;;;;5008790;28;20385;-70
2022/03/27 09:27:32;;;;;;;11.75;8.30;;;13.00;94.00;;;;;;5003960;28;21810;-70
2022/03/27 09:30:01;;;;;;;13.52;9.13;;;13.00;93.90;;;;;;4990545;28;20042;-70
2022/03/27 09:32:31;;;;;;;11.98;8.20;;;13.10;93.70;;;;;;5002782;28;20030;-70
2022/03/27 09:35:10;;;;;;;13.25;9.05;;;13.30;93.70;;;;;;5008995;28;20488;-70
2022/03/27 09:37:38;;;;;;;11.93;8.95;;;13.30;93.50;;;;;;5025886;28;20085;-70
2022/03/27 09:40:15;;;;;;;10.88;8.25;;;13.40;93.40;;;;;;5007913;28;20493;-70
2022/03/27 09:42:42;;;;;;;12.90;8.20;;;13.50;93.10;;;;;;5004776;28;20390;-71
2022/03/27 09:45:19;;;;;;;12.85;8.52;;;13.50;93.10;;;;;;4994057;28;20042;-70
2022/03/27 09:47:50;;;;;;;11.13;8.45;;;13.60;93.00;;;;;;4996803;28;20018;-70
2022/03/27 09:50:32;;;;;;;13.73;8.25;;;13.70;92.90;;;;;;4997506;28;20517;-71
2022/03/27 09:53:23;;;;;;;11.77;8.35;;;13.80;92.70;;;;;;5009808;28;20049;-70
2022/03/27 09:56:10;;;;;;;11.02;8.30;;;13.80;92.60;;;;;;5029044;28;20093;-72
2022/03/27 09:58:43;;;;;;;8.43;6.22;;;14.00;92.40;;;;;;5003662;28;20038;-70
2022/03/27 10:01:16;;;;;;;10.63;7.10;;;14.00;91.50;;;;;;5013062;28;20052;-69
2022/03/27 10:04:08;;;;;;;11.60;7.10;;;14.10;91.40;;;;;;5010264;28;20037;-70
2022/03/27 10:06:39;;;;;;;11.27;8.52;;;14.10;91.20;;;;;;4995154;28;20105;-71
2022/03/27 10:09:07;;;;;;;10.43;7.70;;;14.10;91.00;;;;;;5011453;28;20062;-69
2022/03/27 10:11:34;;;;;;;9.90;7.95;;;14.10;90.80;;;;;;5004881;28;20053;-70
2022/03/27 10:14:01;;;;;;;11.38;8.43;;;14.20;90.90;;;;;;5008416;28;20021;-71
2022/03/27 10:16:33;;;;;;;12.00;8.52;;;14.20;90.90;;;;;;5017517;28;20029;-70
2022/03/27 10:19:33;;;;;;;11.48;8.30;;;14.30;90.70;;;;;;5003454;28;20607;-72
2022/03/27 10:22:01;;;;;;;11.15;7.50;;;14.40;90.70;;;;;;4999379;28;20851;-70
2022/03/27 10:24:30;;;;;;;10.68;7.18;;;14.40;90.00;;;;;;5008101;28;20026;-71
2022/03/27 10:26:59;;;;;;;15.48;8.13;;;14.40;90.00;;;;;;5011294;28;20048;-70
2022/03/27 10:29:28;;;;;;;10.55;8.07;;;14.40;89.40;;;;;;4996153;28;20034;-69
2022/03/27 10:31:54;;;;;;;11.88;8.68;;;14.40;88.70;;;;;;4999882;28;20169;-70
2022/03/27 10:34:21;;;;;;;9.27;7.57;;;14.30;88.40;;;;;;5003401;28;20121;-70
2022/03/27 10:37:13;;;;;;;12.10;9.68;;;14.30;88.50;;;;;;5000780;28;20109;-70
2022/03/27 10:40:00;;;;;;;10.02;8.10;;;14.40;88.40;;;;;;5006918;28;20496;-69
2022/03/27 10:42:54;;;;;;;12.32;7.63;;;14.40;88.10;;;;;;5008906;28;20117;-70
2022/03/27 10:45:21;;;;;;;11.20;8.00;;;14.40;88.50;;;;;;5011986;28;20037;-70
2022/03/27 10:48:08;;;;;;;9.38;6.88;;;14.40;87.80;;;;;;5005913;28;20112;-71
2022/03/27 10:50:51;;;;;;;8.70;6.78;;;14.50;87.40;;;;;;4996075;28;20103;-71
2022/03/27 10:53:18;;;;;;;8.20;6.72;;;14.50;86.40;;;;;;5002016;28;20113;-70
2022/03/27 10:55:46;;;;;;;8.68;6.68;;;14.60;86.30;;;;;;5012306;28;20030;-71
2022/03/27 10:58:39;;;;;;;9.05;6.95;;;14.60;85.80;;;;;;5011890;28;20030;-70
2022/03/27 11:01:07;;;;;;;9.05;7.00;;;14.70;85.70;;;;;;5013391;28;20103;-70
2022/03/27 11:03:47;;;;;;;8.35;6.50;;;14.80;85.00;;;;;;5011088;28;20026;-70
2022/03/27 11:06:26;;;;;;;9.38;6.45;;;14.80;84.60;;;;;;5003257;28;20078;-71
2022/03/27 11:08:54;;;;;;;8.52;5.90;;;14.90;83.80;;;;;;5003034;28;20065;-71
2022/03/27 11:11:38;;;;;;;7.55;4.93;;;15.00;83.60;;;;;;5001974;28;20037;-70
2022/03/27 11:14:05;;;;;;;7.77;6.33;;;15.10;83.50;;;;;;5010926;28;20171;-71
2022/03/27 11:16:31;;;;;;;9.02;6.75;;;15.10;82.70;;;;;;5011462;28;20026;-69
2022/03/27 11:18:56;;;;;;;11.63;7.13;;;15.20;82.20;;;;;;5004952;28;20033;-70
2022/03/27 11:21:27;;;;;;;7.63;6.38;;;15.20;82.10;;;;;;5008930;28;20034;-70
2022/03/27 11:24:19;;;;;;;8.27;5.85;;;15.30;82.20;;;;;;4998752;28;20029;-70
2022/03/27 11:26:44;;;;;;;8.98;6.95;;;15.40;82.40;;;;;;4991545;28;20044;-71
2022/03/27 11:29:10;;;;;;;8.45;6.22;;;15.50;81.70;;;;;;4998864;28;20030;-70
2022/03/27 11:31:41;;;;;;;8.80;5.88;;;15.50;80.80;;;;;;4996507;28;20028;-70
2022/03/27 11:34:11;;;;;;;7.63;5.95;;;15.50;81.00;;;;;;5010581;28;20500;-70
2022/03/27 11:36:38;;;;;;;7.88;4.85;;;15.60;80.30;;;;;;5010267;28;20481;-70
2022/03/27 11:39:09;;;;;;;6.10;5.00;;;15.60;80.20;;;;;;5005043;28;20026;-69
2022/03/27 11:41:45;;;;;;;5.85;4.22;;;15.70;80.10;;;;;;5001031;28;20030;-70
2022/03/27 11:44:17;;;;;;;6.28;4.82;;;15.80;79.40;;;;;;5011219;28;20032;-70
2022/03/27 11:46:54;;;;;;;7.72;4.75;;;15.90;79.00;;;;;;5004397;28;20036;-70
2022/03/27 11:49:21;;;;;;;6.05;4.25;;;15.90;78.60;;;;;;5012305;28;20034;-70
2022/03/27 11:52:02;;;;;;;6.72;5.40;;;16.00;78.00;;;;;;5013155;28;20042;-70
2022/03/27 11:54:28;;;;;;;8.50;5.45;;;16.10;77.60;;;;;;5021110;28;20026;-70
2022/03/27 11:57:01;;;;;;;5.95;4.22;;;16.10;77.00;;;;;;5002071;28;20041;-69
2022/03/27 11:59:27;;;;;;;7.55;4.50;;;16.20;76.90;;;;;;4999965;28;20038;-70
2022/03/27 12:01:54;;;;;;;8.25;5.10;;;16.20;76.20;;;;;;5006799;28;20026;-69
2022/03/27 12:04:20;;;;;;;5.97;4.60;;;16.30;75.70;;;;;;5010337;28;20030;-71
2022/03/27 12:06:46;;;;;;;7.25;4.72;;;16.30;75.50;;;;;;4994485;28;20046;-70
2022/03/27 12:09:32;;;;;;;8.63;5.13;;;16.30;74.90;;;;;;4994105;28;20450;-70
2022/03/27 12:12:12;;;;;;;7.07;5.15;;;16.30;74.20;;;;;;5016951;28;20049;-69
2022/03/27 12:15:04;;;;;;;10.45;4.20;;;16.30;74.60;;;;;;4999772;28;20033;-70
2022/03/27 12:17:32;;;;;;;7.65;4.40;;;16.30;74.20;;;;;;5000558;28;20116;-70
2022/03/27 12:20:08;;;;;;;6.38;4.45;;;16.40;73.50;;;;;;5005467;28;20073;-71
2022/03/27 12:22:45;;;;;;;5.63;3.80;;;16.30;72.80;;;;;;4993586;28;20030;-71
2022/03/27 12:25:26;;;;;;;6.38;4.32;;;16.40;72.40;;;;;;4996788;28;20038;-70
2022/03/27 12:30:44;;;;;;;5.55;4.07;;;16.40;71.80;;;;;;5010450;28;20040;-71
2022/03/27 12:33:10;;;;;;;4.85;3.70;;;16.40;71.50;;;;;;4997402;28;20109;-71
2022/03/27 12:35:35;;;;;;;6.05;4.10;;;16.40;71.60;;;;;;5009337;28;20038;-71
2022/03/27 12:38:01;;;;;;;5.95;4.20;;;16.40;71.20;;;;;;5010327;28;20029;-71
2022/03/27 12:40:28;;;;;;;7.93;4.72;;;16.40;71.80;;;;;;5024483;28;20048;-72
2022/03/27 12:42:54;;;;;;;8.90;4.35;;;16.50;72.10;;;;;;4997750;28;20034;-70
2022/03/27 12:45:23;;;;;;;7.55;4.13;;;16.50;72.00;;;;;;5004255;28;20030;-69
2022/03/27 12:47:51;;;;;;;5.65;4.00;;;16.60;71.80;;;;;;4996666;28;20056;-71
2022/03/27 12:50:26;;;;;;;5.50;3.53;;;16.60;71.50;;;;;;5009367;28;20036;-71